weather.gov     
National Weather Service

Terminal Aerodrome Forecast
NWS Homepage
This page is being discontinued on March 12, 2014.
The same data is available at this site. Please update your bookmarks.
Thank you, and we apologize for the inconvenience.
Please send an email to SR-SRH.Webmaster@noaa.gov with any concerns.


Current Version
Previous Version:    01  02  03  04  05  06  07  08  09  10  11  12  13  14  15  16  17  18  19  20  21  22  23  24  25  26  27  
[Printable]
528
FTUS42 KGSP 231127
TAFAND
TAF
KAND 231127Z 2312/2412 06008KT P6SM -RA BKN008 OVC012
     FM231400 06009KT 4SM RA OVC008
     FM231600 05008KT 3SM SHRA BR OVC011
     FM231700 06009KT 1 1/2SM RA BR OVC010 WS020/10040KT
     FM231900 08010KT 1 1/2SM SHRA BR OVC010
     FM232200 12009KT 2SM SHRA BR OVC005 WS020/20035KT PROB30
      2322/2401 1SM TSRA OVC005CB
     FM240400 19009KT 5SM BR BKN006 OVC008=


528
FTUS42 KGSP 231127
TAFAND
TAF
KAND 231127Z 2312/2412 06008KT P6SM -RA BKN008 OVC012
     FM231400 06009KT 4SM RA OVC008
     FM231600 05008KT 3SM SHRA BR OVC011
     FM231700 06009KT 1 1/2SM RA BR OVC010 WS020/10040KT
     FM231900 08010KT 1 1/2SM SHRA BR OVC010
     FM232200 12009KT 2SM SHRA BR OVC005 WS020/20035KT PROB30
      2322/2401 1SM TSRA OVC005CB
     FM240400 19009KT 5SM BR BKN006 OVC008=




U.S. Dept. of Commerce
NOAA National Weather Service
1325 East West Highway
Silver Spring, MD 20910
E-mail: w-nws.webmaster@noaa.gov
Page last modified: May 16, 2007
NATIONAL WEATHER SERVICE: for Safety, for Work, for Fun - FOR LIFE